sensor_id;sensor_type;location;lat;lon;timestamp;pressure;altitude;pressure_sealevel;temperature
77789;BMP280;70537;44.384;0.512;2024-03-07T00:02:14;100858.75;;;4.24
77789;BMP280;70537;44.384;0.512;2024-03-07T00:04:42;100855.00;;;4.21
77789;BMP280;70537;44.384;0.512;2024-03-07T00:07:08;100853.38;;;4.24
77789;BMP280;70537;44.384;0.512;2024-03-07T00:09:34;100851.53;;;4.21
77789;BMP280;70537;44.384;0.512;2024-03-07T00:12:00;100846.16;;;4.21
77789;BMP280;70537;44.384;0.512;2024-03-07T00:14:26;100840.50;;;4.19
77789;BMP280;70537;44.384;0.512;2024-03-07T00:16:54;100840.50;;;4.19
77789;BMP280;70537;44.384;0.512;2024-03-07T00:19:20;100832.97;;;4.13
77789;BMP280;70537;44.384;0.512;2024-03-07T00:21:46;100828.75;;;4.12
77789;BMP280;70537;44.384;0.512;2024-03-07T00:24:12;100826.59;;;4.07
77789;BMP280;70537;44.384;0.512;2024-03-07T00:26:39;100814.34;;;4.06
77789;BMP280;70537;44.384;0.512;2024-03-07T00:29:05;100815.53;;;4.05
77789;BMP280;70537;44.384;0.512;2024-03-07T00:31:32;100818.28;;;4.02
77789;BMP280;70537;44.384;0.512;2024-03-07T00:33:58;100812.72;;;3.96
77789;BMP280;70537;44.384;0.512;2024-03-07T00:36:24;100815.50;;;3.92
77789;BMP280;70537;44.384;0.512;2024-03-07T00:38:49;100823.97;;;3.91
77789;BMP280;70537;44.384;0.512;2024-03-07T00:41:15;100824.16;;;3.84
77789;BMP280;70537;44.384;0.512;2024-03-07T00:43:42;100812.75;;;3.80
77789;BMP280;70537;44.384;0.512;2024-03-07T00:46:08;100813.94;;;3.79
77789;BMP280;70537;44.384;0.512;2024-03-07T00:48:33;100813.00;;;3.72
77789;BMP280;70537;44.384;0.512;2024-03-07T00:50:59;100802.25;;;3.72
77789;BMP280;70537;44.384;0.512;2024-03-07T00:53:24;100805.28;;;3.75
77789;BMP280;70537;44.384;0.512;2024-03-07T00:55:50;100801.91;;;3.70
77789;BMP280;70537;44.384;0.512;2024-03-07T00:58:16;100790.84;;;3.68
77789;BMP280;70537;44.384;0.512;2024-03-07T01:00:41;100790.06;;;3.68
77789;BMP280;70537;44.384;0.512;2024-03-07T01:03:11;100783.28;;;3.63
77789;BMP280;70537;44.384;0.512;2024-03-07T01:05:39;100779.53;;;3.61
77789;BMP280;70537;44.384;0.512;2024-03-07T01:08:05;100770.81;;;3.57
77789;BMP280;70537;44.384;0.512;2024-03-07T01:10:30;100775.44;;;3.56
77789;BMP280;70537;44.384;0.512;2024-03-07T01:12:56;100772.00;;;3.56
77789;BMP280;70537;44.384;0.512;2024-03-07T01:15:26;100763.16;;;3.55
77789;BMP280;70537;44.384;0.512;2024-03-07T01:17:52;100753.63;;;3.54
77789;BMP280;70537;44.384;0.512;2024-03-07T01:20:18;100757.38;;;3.57
77789;BMP280;70537;44.384;0.512;2024-03-07T01:22:44;100759.25;;;3.60
77789;BMP280;70537;44.384;0.512;2024-03-07T01:25:09;100742.56;;;3.52
77789;BMP280;70537;44.384;0.512;2024-03-07T01:27:35;100755.91;;;3.56
77789;BMP280;70537;44.384;0.512;2024-03-07T01:30:01;100746.66;;;3.57
77789;BMP280;70537;44.384;0.512;2024-03-07T01:32:27;100739.78;;;3.56
77789;BMP280;70537;44.384;0.512;2024-03-07T01:34:53;100741.38;;;3.53
77789;BMP280;70537;44.384;0.512;2024-03-07T01:37:19;100740.72;;;3.49
77789;BMP280;70537;44.384;0.512;2024-03-07T01:39:45;100733.94;;;3.44
77789;BMP280;70537;44.384;0.512;2024-03-07T01:42:12;100730.44;;;3.47
77789;BMP280;70537;44.384;0.512;2024-03-07T01:44:37;100726.34;;;3.43
77789;BMP280;70537;44.384;0.512;2024-03-07T01:47:05;100728.25;;;3.42
77789;BMP280;70537;44.384;0.512;2024-03-07T01:49:32;100722.66;;;3.37
77789;BMP280;70537;44.384;0.512;2024-03-07T01:51:58;100727.19;;;3.40
77789;BMP280;70537;44.384;0.512;2024-03-07T01:54:25;100729.94;;;3.36
77789;BMP280;70537;44.384;0.512;2024-03-07T01:56:51;100736.50;;;3.35
77789;BMP280;70537;44.384;0.512;2024-03-07T01:59:18;100744.53;;;3.35
77789;BMP280;70537;44.384;0.512;2024-03-07T02:01:46;100734.22;;;3.34
77789;BMP280;70537;44.384;0.512;2024-03-07T02:04:12;100729.72;;;3.30
77789;BMP280;70537;44.384;0.512;2024-03-07T02:06:38;100732.41;;;3.30
77789;BMP280;70537;44.384;0.512;2024-03-07T02:09:03;100721.34;;;3.28
77789;BMP280;70537;44.384;0.512;2024-03-07T02:11:31;100705.53;;;3.18
77789;BMP280;70537;44.384;0.512;2024-03-07T02:13:56;100713.59;;;3.18
77789;BMP280;70537;44.384;0.512;2024-03-07T02:16:22;100713.16;;;3.19
77789;BMP280;70537;44.384;0.512;2024-03-07T02:18:48;100709.03;;;3.15
77789;BMP280;70537;44.384;0.512;2024-03-07T02:21:15;100706.47;;;3.11
77789;BMP280;70537;44.384;0.512;2024-03-07T02:23:41;100702.28;;;3.10
77789;BMP280;70537;44.384;0.512;2024-03-07T02:26:06;100690.63;;;3.00
77789;BMP280;70537;44.384;0.512;2024-03-07T02:28:34;100681.50;;;2.98
77789;BMP280;70537;44.384;0.512;2024-03-07T02:31:00;100689.75;;;2.91
77789;BMP280;70537;44.384;0.512;2024-03-07T02:33:26;100690.91;;;2.89
77789;BMP280;70537;44.384;0.512;2024-03-07T02:35:51;100690.16;;;2.89
77789;BMP280;70537;44.384;0.512;2024-03-07T02:38:17;100677.69;;;2.82
77789;BMP280;70537;44.384;0.512;2024-03-07T02:40:43;100684.13;;;2.85
77789;BMP280;70537;44.384;0.512;2024-03-07T02:43:08;100684.78;;;2.89
77789;BMP280;70537;44.384;0.512;2024-03-07T02:45:34;100673.00;;;2.86
77789;BMP280;70537;44.384;0.512;2024-03-07T02:47:59;100666.97;;;2.82
77789;BMP280;70537;44.384;0.512;2024-03-07T02:50:25;100663.94;;;2.80
77789;BMP280;70537;44.384;0.512;2024-03-07T02:52:50;100659.84;;;2.76
77789;BMP280;70537;44.384;0.512;2024-03-07T02:55:17;100667.16;;;2.75
77789;BMP280;70537;44.384;0.512;2024-03-07T02:57:44;100670.22;;;2.74
77789;BMP280;70537;44.384;0.512;2024-03-07T03:00:12;100668.31;;;2.74
77789;BMP280;70537;44.384;0.512;2024-03-07T03:02:52;100666.53;;;2.67
77789;BMP280;70537;44.384;0.512;2024-03-07T03:05:17;100666.97;;;2.66
77789;BMP280;70537;44.384;0.512;2024-03-07T03:07:44;100666.38;;;2.75
77789;BMP280;70537;44.384;0.512;2024-03-07T03:10:12;100667.16;;;2.75
77789;BMP280;70537;44.384;0.512;2024-03-07T03:12:41;100655.75;;;2.71
77789;BMP280;70537;44.384;0.512;2024-03-07T03:15:07;100656.84;;;2.74
77789;BMP280;70537;44.384;0.512;2024-03-07T03:17:33;100653.47;;;2.69
77789;BMP280;70537;44.384;0.512;2024-03-07T03:19:59;100661.28;;;2.64
77789;BMP280;70537;44.384;0.512;2024-03-07T03:22:24;100657.88;;;2.63
77789;BMP280;70537;44.384;0.512;2024-03-07T03:24:52;100654.09;;;2.61
77789;BMP280;70537;44.384;0.512;2024-03-07T03:27:21;100659.47;;;2.61
77789;BMP280;70537;44.384;0.512;2024-03-07T03:29:47;100652.50;;;2.63
77789;BMP280;70537;44.384;0.512;2024-03-07T03:32:13;100650.75;;;2.57
77789;BMP280;70537;44.384;0.512;2024-03-07T03:34:38;100644.72;;;2.53
77789;BMP280;70537;44.384;0.512;2024-03-07T03:37:04;100649.66;;;2.54
77789;BMP280;70537;44.384;0.512;2024-03-07T03:39:30;100650.81;;;2.53
77789;BMP280;70537;44.384;0.512;2024-03-07T03:41:55;100620.44;;;2.43
77789;BMP280;70537;44.384;0.512;2024-03-07T03:44:21;100631.50;;;2.45
77789;BMP280;70537;44.384;0.512;2024-03-07T03:46:46;100633.31;;;2.48
77789;BMP280;70537;44.384;0.512;2024-03-07T03:49:11;100629.97;;;2.44
77789;BMP280;70537;44.384;0.512;2024-03-07T03:51:37;100634.81;;;2.50
77789;BMP280;70537;44.384;0.512;2024-03-07T03:54:02;100630.97;;;2.51
77789;BMP280;70537;44.384;0.512;2024-03-07T03:56:28;100630.31;;;2.46
77789;BMP280;70537;44.384;0.512;2024-03-07T03:58:53;100628.81;;;2.45
77789;BMP280;70537;44.384;0.512;2024-03-07T04:01:19;100625.81;;;2.43
77789;BMP280;70537;44.384;0.512;2024-03-07T04:03:44;100621.59;;;2.42
77789;BMP280;70537;44.384;0.512;2024-03-07T04:06:12;100614.06;;;2.37
77789;BMP280;70537;44.384;0.512;2024-03-07T04:08:39;100621.13;;;2.31
77789;BMP280;70537;44.384;0.512;2024-03-07T04:11:05;100619.50;;;2.34
77789;BMP280;70537;44.384;0.512;2024-03-07T04:13:30;100618.53;;;2.28
77789;BMP280;70537;44.384;0.512;2024-03-07T04:15:56;100619.25;;;2.28
77789;BMP280;70537;44.384;0.512;2024-03-07T04:18:22;100609.81;;;2.23
77789;BMP280;70537;44.384;0.512;2024-03-07T04:20:48;100611.41;;;2.21
77789;BMP280;70537;44.384;0.512;2024-03-07T04:23:13;100608.06;;;2.17
77789;BMP280;70537;44.384;0.512;2024-03-07T04:25:39;100611.97;;;2.12
77789;BMP280;70537;44.384;0.512;2024-03-07T04:28:04;100607.78;;;2.11
77789;BMP280;70537;44.384;0.512;2024-03-07T04:30:30;100591.38;;;2.09
77789;BMP280;70537;44.384;0.512;2024-03-07T04:32:56;100602.44;;;2.11
77789;BMP280;70537;44.384;0.512;2024-03-07T04:35:23;100599.00;;;2.11
77789;BMP280;70537;44.384;0.512;2024-03-07T04:37:49;100588.72;;;2.09
77789;BMP280;70537;44.384;0.512;2024-03-07T04:40:16;100589.53;;;2.06
77789;BMP280;70537;44.384;0.512;2024-03-07T04:42:48;100595.66;;;2.06
77789;BMP280;70537;44.384;0.512;2024-03-07T04:45:14;100582.78;;;2.01
77789;BMP280;70537;44.384;0.512;2024-03-07T04:47:41;100577.16;;;1.96
77789;BMP280;70537;44.384;0.512;2024-03-07T04:50:07;100584.34;;;1.99
77789;BMP280;70537;44.384;0.512;2024-03-07T04:52:33;100577.22;;;1.92
77789;BMP280;70537;44.384;0.512;2024-03-07T04:54:58;100578.00;;;1.93
77789;BMP280;70537;44.384;0.512;2024-03-07T04:57:24;100574.88;;;1.94
77789;BMP280;70537;44.384;0.512;2024-03-07T04:59:50;100577.22;;;1.92
77789;BMP280;70537;44.384;0.512;2024-03-07T05:02:15;100570.13;;;1.85
77789;BMP280;70537;44.384;0.512;2024-03-07T05:04:40;100573.88;;;1.88
77789;BMP280;70537;44.384;0.512;2024-03-07T05:07:06;100572.81;;;1.85
77789;BMP280;70537;44.384;0.512;2024-03-07T05:09:31;100579.34;;;1.84
77789;BMP280;70537;44.384;0.512;2024-03-07T05:11:58;100577.41;;;1.85
77789;BMP280;70537;44.384;0.512;2024-03-07T05:14:24;100583.16;;;1.83
77789;BMP280;70537;44.384;0.512;2024-03-07T05:16:52;100583.16;;;1.83
77789;BMP280;70537;44.384;0.512;2024-03-07T05:19:35;100581.75;;;1.79
77789;BMP280;70537;44.384;0.512;2024-03-07T05:22:02;100578.31;;;1.78
77789;BMP280;70537;44.384;0.512;2024-03-07T05:24:30;100585.09;;;1.83
77789;BMP280;70537;44.384;0.512;2024-03-07T05:26:56;100588.47;;;1.87
77789;BMP280;70537;44.384;0.512;2024-03-07T05:29:22;100588.47;;;1.87
77789;BMP280;70537;44.384;0.512;2024-03-07T05:31:48;100592.19;;;1.90
77789;BMP280;70537;44.384;0.512;2024-03-07T05:34:14;100580.00;;;1.89
77789;BMP280;70537;44.384;0.512;2024-03-07T05:36:41;100587.44;;;1.97
77789;BMP280;70537;44.384;0.512;2024-03-07T05:39:12;100586.69;;;1.97
77789;BMP280;70537;44.384;0.512;2024-03-07T05:41:38;100576.00;;;1.97
77789;BMP280;70537;44.384;0.512;2024-03-07T05:44:04;100577.75;;;2.03
77789;BMP280;70537;44.384;0.512;2024-03-07T05:46:38;100579.59;;;2.06
77789;BMP280;70537;44.384;0.512;2024-03-07T05:49:10;100586.03;;;2.09
77789;BMP280;70537;44.384;0.512;2024-03-07T05:51:35;100580.66;;;2.09
77789;BMP280;70537;44.384;0.512;2024-03-07T05:54:01;100574.16;;;2.10
77789;BMP280;70537;44.384;0.512;2024-03-07T05:56:32;100576.50;;;2.08
77789;BMP280;70537;44.384;0.512;2024-03-07T05:59:03;100575.66;;;2.11
77789;BMP280;70537;44.384;0.512;2024-03-07T06:01:38;100578.59;;;2.17
77789;BMP280;70537;44.384;0.512;2024-03-07T06:04:05;100580.34;;;2.23
77789;BMP280;70537;44.384;0.512;2024-03-07T06:06:32;100570.72;;;2.26
77789;BMP280;70537;44.384;0.512;2024-03-07T06:09:18;100561.00;;;2.32
77789;BMP280;70537;44.384;0.512;2024-03-07T06:11:49;100563.94;;;2.38
77789;BMP280;70537;44.384;0.512;2024-03-07T06:14:15;100566.44;;;2.45
77789;BMP280;70537;44.384;0.512;2024-03-07T06:16:41;100554.13;;;2.47
77789;BMP280;70537;44.384;0.512;2024-03-07T06:19:08;100546.75;;;2.52
77789;BMP280;70537;44.384;0.512;2024-03-07T06:21:37;100543.38;;;2.64
77789;BMP280;70537;44.384;0.512;2024-03-07T06:24:04;100548.22;;;2.69
77789;BMP280;70537;44.384;0.512;2024-03-07T06:26:36;100537.50;;;2.69
77789;BMP280;70537;44.384;0.512;2024-03-07T06:29:06;100541.75;;;2.66
77789;BMP280;70537;44.384;0.512;2024-03-07T06:31:32;100546.63;;;2.72
77789;BMP280;70537;44.384;0.512;2024-03-07T06:33:58;100538.50;;;2.75
77789;BMP280;70537;44.384;0.512;2024-03-07T06:36:23;100530.69;;;2.81
77789;BMP280;70537;44.384;0.512;2024-03-07T06:38:50;100521.81;;;2.84
77789;BMP280;70537;44.384;0.512;2024-03-07T06:41:16;100522.78;;;2.90
77789;BMP280;70537;44.384;0.512;2024-03-07T06:43:43;100511.94;;;2.94
77789;BMP280;70537;44.384;0.512;2024-03-07T06:46:10;100517.94;;;2.98
77789;BMP280;70537;44.384;0.512;2024-03-07T06:48:36;100513.91;;;3.06
77789;BMP280;70537;44.384;0.512;2024-03-07T06:51:01;100503.91;;;3.06
77789;BMP280;70537;44.384;0.512;2024-03-07T06:53:27;100498.78;;;3.12
77789;BMP280;70537;44.384;0.512;2024-03-07T06:55:54;100480.75;;;3.13
77789;BMP280;70537;44.384;0.512;2024-03-07T06:58:20;100487.19;;;3.15
77789;BMP280;70537;44.384;0.512;2024-03-07T07:00:46;100478.81;;;3.13
77789;BMP280;70537;44.384;0.512;2024-03-07T07:03:12;100466.59;;;3.12
77789;BMP280;70537;44.384;0.512;2024-03-07T07:05:40;100467.81;;;3.11
77789;BMP280;70537;44.384;0.512;2024-03-07T07:08:08;100477.66;;;3.14
77789;BMP280;70537;44.384;0.512;2024-03-07T07:10:35;100475.09;;;3.23
77789;BMP280;70537;44.384;0.512;2024-03-07T07:13:01;100471.53;;;3.26
77789;BMP280;70537;44.384;0.512;2024-03-07T07:15:26;100470.81;;;3.26
77789;BMP280;70537;44.384;0.512;2024-03-07T07:17:51;100468.00;;;3.29
77789;BMP280;70537;44.384;0.512;2024-03-07T07:20:18;100462.75;;;3.39
77789;BMP280;70537;44.384;0.512;2024-03-07T07:22:45;100464.16;;;3.43
77789;BMP280;70537;44.384;0.512;2024-03-07T07:25:12;100457.81;;;3.50
77789;BMP280;70537;44.384;0.512;2024-03-07T07:27:43;100456.91;;;3.53
77789;BMP280;70537;44.384;0.512;2024-03-07T07:30:10;100461.03;;;3.58
77789;BMP280;70537;44.384;0.512;2024-03-07T07:32:36;100456.81;;;3.57
77789;BMP280;70537;44.384;0.512;2024-03-07T07:35:02;100458.75;;;3.56
77789;BMP280;70537;44.384;0.512;2024-03-07T07:37:27;100442.09;;;3.61
77789;BMP280;70537;44.384;0.512;2024-03-07T07:39:53;100448.44;;;3.67
77789;BMP280;70537;44.384;0.512;2024-03-07T07:42:18;100443.44;;;3.79
77789;BMP280;70537;44.384;0.512;2024-03-07T07:44:44;100436.19;;;4.01
77789;BMP280;70537;44.384;0.512;2024-03-07T07:47:09;100436.22;;;4.23
77789;BMP280;70537;44.384;0.512;2024-03-07T07:49:37;100427.22;;;4.39
77789;BMP280;70537;44.384;0.512;2024-03-07T07:52:04;100416.59;;;4.57
77789;BMP280;70537;44.384;0.512;2024-03-07T07:54:30;100402.44;;;4.66
77789;BMP280;70537;44.384;0.512;2024-03-07T07:56:55;100391.28;;;4.86
77789;BMP280;70537;44.384;0.512;2024-03-07T07:59:21;100360.09;;;4.98
77789;BMP280;70537;44.384;0.512;2024-03-07T08:01:46;100361.34;;;5.15
77789;BMP280;70537;44.384;0.512;2024-03-07T08:04:12;100362.28;;;5.31
77789;BMP280;70537;44.384;0.512;2024-03-07T08:06:37;100374.84;;;5.43
77789;BMP280;70537;44.384;0.512;2024-03-07T08:09:03;100417.63;;;5.69
77789;BMP280;70537;44.384;0.512;2024-03-07T08:11:28;100440.22;;;5.90
77789;BMP280;70537;44.384;0.512;2024-03-07T08:13:54;100452.06;;;6.20
77789;BMP280;70537;44.384;0.512;2024-03-07T08:16:19;100464.75;;;6.28
77789;BMP280;70537;44.384;0.512;2024-03-07T08:18:45;100482.97;;;6.43
77789;BMP280;70537;44.384;0.512;2024-03-07T08:21:11;100497.22;;;6.43
77789;BMP280;70537;44.384;0.512;2024-03-07T08:23:37;100513.63;;;6.64
77789;BMP280;70537;44.384;0.512;2024-03-07T08:26:03;100523.22;;;6.83
77789;BMP280;70537;44.384;0.512;2024-03-07T08:28:28;100514.44;;;7.07
77789;BMP280;70537;44.384;0.512;2024-03-07T08:30:53;100527.84;;;7.25
77789;BMP280;70537;44.384;0.512;2024-03-07T08:33:20;100526.47;;;7.30
77789;BMP280;70537;44.384;0.512;2024-03-07T08:35:47;100530.00;;;7.45
77789;BMP280;70537;44.384;0.512;2024-03-07T08:38:13;100524.00;;;7.65
77789;BMP280;70537;44.384;0.512;2024-03-07T08:40:39;100526.63;;;7.98
77789;BMP280;70537;44.384;0.512;2024-03-07T08:43:05;100525.47;;;8.29
77789;BMP280;70537;44.384;0.512;2024-03-07T08:45:32;100543.34;;;8.41
77789;BMP280;70537;44.384;0.512;2024-03-07T08:48:02;100539.00;;;8.44
77789;BMP280;70537;44.384;0.512;2024-03-07T08:50:29;100558.22;;;8.61
77789;BMP280;70537;44.384;0.512;2024-03-07T08:52:55;100563.22;;;8.83
77789;BMP280;70537;44.384;0.512;2024-03-07T08:55:23;100569.75;;;8.91
77789;BMP280;70537;44.384;0.512;2024-03-07T08:57:50;100565.25;;;9.03
77789;BMP280;70537;44.384;0.512;2024-03-07T09:00:17;100570.09;;;9.28
77789;BMP280;70537;44.384;0.512;2024-03-07T09:02:53;100575.38;;;9.58
77789;BMP280;70537;44.384;0.512;2024-03-07T09:05:20;100568.41;;;9.92
77789;BMP280;70537;44.384;0.512;2024-03-07T09:07:47;100566.22;;;10.22
77789;BMP280;70537;44.384;0.512;2024-03-07T09:10:13;100575.41;;;10.51
77789;BMP280;70537;44.384;0.512;2024-03-07T09:12:43;100585.88;;;10.69
77789;BMP280;70537;44.384;0.512;2024-03-07T09:15:09;100600.16;;;10.96
77789;BMP280;70537;44.384;0.512;2024-03-07T09:17:39;100637.50;;;11.07
77789;BMP280;70537;44.384;0.512;2024-03-07T09:20:08;100654.63;;;11.18
77789;BMP280;70537;44.384;0.512;2024-03-07T09:22:42;100617.56;;;11.58
77789;BMP280;70537;44.384;0.512;2024-03-07T09:25:08;100663.72;;;11.47
77789;BMP280;70537;44.384;0.512;2024-03-07T09:27:34;100640.53;;;11.57
77789;BMP280;70537;44.384;0.512;2024-03-07T09:29:59;100668.16;;;11.45
77789;BMP280;70537;44.384;0.512;2024-03-07T09:32:24;100664.03;;;11.60
77789;BMP280;70537;44.384;0.512;2024-03-07T09:34:50;100679.78;;;11.51
77789;BMP280;70537;44.384;0.512;2024-03-07T09:37:15;100681.25;;;11.52
77789;BMP280;70537;44.384;0.512;2024-03-07T09:39:41;100675.78;;;11.89
77789;BMP280;70537;44.384;0.512;2024-03-07T09:42:07;100665.47;;;12.10
77789;BMP280;70537;44.384;0.512;2024-03-07T09:44:40;100667.97;;;12.25
77789;BMP280;70537;44.384;0.512;2024-03-07T09:47:07;100721.47;;;12.39
77789;BMP280;70537;44.384;0.512;2024-03-07T09:49:33;100694.50;;;12.52
77789;BMP280;70537;44.384;0.512;2024-03-07T09:52:08;100722.97;;;12.57
77789;BMP280;70537;44.384;0.512;2024-03-07T09:54:37;100684.88;;;12.68
77789;BMP280;70537;44.384;0.512;2024-03-07T09:57:04;100733.63;;;12.49
77789;BMP280;70537;44.384;0.512;2024-03-07T09:59:34;100716.81;;;12.57
77789;BMP280;70537;44.384;0.512;2024-03-07T10:02:03;100721.28;;;12.71
77789;BMP280;70537;44.384;0.512;2024-03-07T10:04:48;100732.13;;;12.54
77789;BMP280;70537;44.384;0.512;2024-03-07T10:07:18;100698.00;;;12.87
77789;BMP280;70537;44.384;0.512;2024-03-07T10:09:45;100665.56;;;13.17
77789;BMP280;70537;44.384;0.512;2024-03-07T10:12:10;100716.78;;;13.35
77789;BMP280;70537;44.384;0.512;2024-03-07T10:14:56;100716.56;;;13.39
77789;BMP280;70537;44.384;0.512;2024-03-07T10:17:25;100696.19;;;13.57
77789;BMP280;70537;44.384;0.512;2024-03-07T10:19:54;100709.72;;;13.79
77789;BMP280;70537;44.384;0.512;2024-03-07T10:22:20;100720.69;;;13.68
77789;BMP280;70537;44.384;0.512;2024-03-07T10:24:53;100711.69;;;13.84
77789;BMP280;70537;44.384;0.512;2024-03-07T10:27:19;100695.44;;;13.39
77789;BMP280;70537;44.384;0.512;2024-03-07T10:29:48;100689.06;;;13.20
77789;BMP280;70537;44.384;0.512;2024-03-07T10:32:23;100703.69;;;13.06
77789;BMP280;70537;44.384;0.512;2024-03-07T10:34:53;100716.31;;;12.86
77789;BMP280;70537;44.384;0.512;2024-03-07T10:37:19;100690.34;;;13.02
77789;BMP280;70537;44.384;0.512;2024-03-07T10:39:46;100710.63;;;13.01
77789;BMP280;70537;44.384;0.512;2024-03-07T10:42:19;100693.31;;;13.04
77789;BMP280;70537;44.384;0.512;2024-03-07T10:44:49;100681.91;;;13.06
77789;BMP280;70537;44.384;0.512;2024-03-07T10:47:18;100700.06;;;13.73
77789;BMP280;70537;44.384;0.512;2024-03-07T10:50:08;100671.53;;;14.26
77789;BMP280;70537;44.384;0.512;2024-03-07T10:52:48;100667.13;;;14.83
77789;BMP280;70537;44.384;0.512;2024-03-07T10:55:28;100688.59;;;14.68
77789;BMP280;70537;44.384;0.512;2024-03-07T10:58:53;100705.63;;;14.85
77789;BMP280;70537;44.384;0.512;2024-03-07T11:01:14;100686.19;;;14.89
77789;BMP280;70537;44.384;0.512;2024-03-07T11:03:40;100680.81;;;14.78
77789;BMP280;70537;44.384;0.512;2024-03-07T11:06:08;100681.25;;;14.88
77789;BMP280;70537;44.384;0.512;2024-03-07T11:08:37;100680.28;;;15.09
77789;BMP280;70537;44.384;0.512;2024-03-07T11:11:03;100700.25;;;15.23
77789;BMP280;70537;44.384;0.512;2024-03-07T11:13:33;100670.53;;;15.39
77789;BMP280;70537;44.384;0.512;2024-03-07T11:16:00;100666.16;;;15.30
77789;BMP280;70537;44.384;0.512;2024-03-07T11:18:26;100651.91;;;15.37
77789;BMP280;70537;44.384;0.512;2024-03-07T11:20:52;100668.97;;;15.43
77789;BMP280;70537;44.384;0.512;2024-03-07T11:23:29;100654.28;;;15.65
77789;BMP280;70537;44.384;0.512;2024-03-07T11:26:10;100652.06;;;15.82
77789;BMP280;70537;44.384;0.512;2024-03-07T11:28:41;100643.66;;;15.62
77789;BMP280;70537;44.384;0.512;2024-03-07T11:31:12;100648.81;;;15.84
77789;BMP280;70537;44.384;0.512;2024-03-07T11:33:38;100653.25;;;16.06
77789;BMP280;70537;44.384;0.512;2024-03-07T11:36:10;100658.00;;;16.19
77789;BMP280;70537;44.384;0.512;2024-03-07T11:38:47;100658.47;;;16.23
77789;BMP280;70537;44.384;0.512;2024-03-07T11:41:14;100645.69;;;16.71
77789;BMP280;70537;44.384;0.512;2024-03-07T11:43:43;100650.34;;;16.76
77789;BMP280;70537;44.384;0.512;2024-03-07T11:46:08;100654.78;;;16.92
77789;BMP280;70537;44.384;0.512;2024-03-07T11:48:39;100651.25;;;17.32
77789;BMP280;70537;44.384;0.512;2024-03-07T11:51:07;100640.28;;;17.32
77789;BMP280;70537;44.384;0.512;2024-03-07T11:53:38;100631.44;;;17.94
77789;BMP280;70537;44.384;0.512;2024-03-07T11:56:04;100652.41;;;17.36
77789;BMP280;70537;44.384;0.512;2024-03-07T11:58:37;100612.63;;;17.77
77789;BMP280;70537;44.384;0.512;2024-03-07T12:01:06;100620.19;;;18.05
77789;BMP280;70537;44.384;0.512;2024-03-07T12:03:36;100618.00;;;17.69
77789;BMP280;70537;44.384;0.512;2024-03-07T12:06:03;100615.03;;;18.02
77789;BMP280;70537;44.384;0.512;2024-03-07T12:08:28;100623.72;;;18.13
77789;BMP280;70537;44.384;0.512;2024-03-07T12:10:55;100612.50;;;17.83
77789;BMP280;70537;44.384;0.512;2024-03-07T12:13:21;100602.47;;;17.51
77789;BMP280;70537;44.384;0.512;2024-03-07T12:15:48;100583.06;;;17.70
77789;BMP280;70537;44.384;0.512;2024-03-07T12:18:17;100573.22;;;18.16
77789;BMP280;70537;44.384;0.512;2024-03-07T12:20:44;100593.34;;;18.40
77789;BMP280;70537;44.384;0.512;2024-03-07T12:23:16;100586.63;;;18.56
77789;BMP280;70537;44.384;0.512;2024-03-07T12:25:45;100583.81;;;18.41
77789;BMP280;70537;44.384;0.512;2024-03-07T12:28:14;100583.63;;;18.18
77789;BMP280;70537;44.384;0.512;2024-03-07T12:33:11;100570.16;;;18.28
77789;BMP280;70537;44.384;0.512;2024-03-07T12:35:39;100555.88;;;18.58
77789;BMP280;70537;44.384;0.512;2024-03-07T12:38:08;100550.06;;;18.04
77789;BMP280;70537;44.384;0.512;2024-03-07T12:40:37;100548.66;;;17.90
77789;BMP280;70537;44.384;0.512;2024-03-07T12:43:12;100537.69;;;17.69
77789;BMP280;70537;44.384;0.512;2024-03-07T12:45:50;100534.34;;;18.12
77789;BMP280;70537;44.384;0.512;2024-03-07T12:48:17;100526.91;;;17.92
77789;BMP280;70537;44.384;0.512;2024-03-07T12:50:45;100514.19;;;18.10
77789;BMP280;70537;44.384;0.512;2024-03-07T12:53:10;100504.97;;;18.28
77789;BMP280;70537;44.384;0.512;2024-03-07T12:55:40;100503.91;;;18.03
77789;BMP280;70537;44.384;0.512;2024-03-07T12:58:09;100505.50;;;18.27
77789;BMP280;70537;44.384;0.512;2024-03-07T13:00:37;100505.59;;;18.42
77789;BMP280;70537;44.384;0.512;2024-03-07T13:03:04;100499.66;;;18.66
77789;BMP280;70537;44.384;0.512;2024-03-07T13:05:30;100499.97;;;19.30
77789;BMP280;70537;44.384;0.512;2024-03-07T13:07:56;100502.16;;;19.16
77789;BMP280;70537;44.384;0.512;2024-03-07T13:10:22;100500.00;;;19.45
77789;BMP280;70537;44.384;0.512;2024-03-07T13:12:49;100491.16;;;19.85
77789;BMP280;70537;44.384;0.512;2024-03-07T13:15:16;100489.72;;;19.91
77789;BMP280;70537;44.384;0.512;2024-03-07T13:17:41;100499.03;;;19.88
77789;BMP280;70537;44.384;0.512;2024-03-07T13:20:11;100473.81;;;20.15
77789;BMP280;70537;44.384;0.512;2024-03-07T13:22:41;100478.22;;;20.58
77789;BMP280;70537;44.384;0.512;2024-03-07T13:25:16;100464.09;;;20.54
77789;BMP280;70537;44.384;0.512;2024-03-07T13:27:51;100456.31;;;19.57
77789;BMP280;70537;44.384;0.512;2024-03-07T13:30:17;100461.25;;;19.12
77789;BMP280;70537;44.384;0.512;2024-03-07T13:33:03;100444.97;;;19.45
77789;BMP280;70537;44.384;0.512;2024-03-07T13:35:29;100455.41;;;19.47
77789;BMP280;70537;44.384;0.512;2024-03-07T13:37:55;100458.34;;;19.56
77789;BMP280;70537;44.384;0.512;2024-03-07T13:40:25;100448.44;;;19.45
77789;BMP280;70537;44.384;0.512;2024-03-07T13:42:51;100450.63;;;19.32
77789;BMP280;70537;44.384;0.512;2024-03-07T13:45:21;100450.53;;;18.63
77789;BMP280;70537;44.384;0.512;2024-03-07T13:47:47;100447.97;;;18.65
77789;BMP280;70537;44.384;0.512;2024-03-07T13:50:18;100435.94;;;19.52
77789;BMP280;70537;44.384;0.512;2024-03-07T13:52:52;100426.59;;;19.17
77789;BMP280;70537;44.384;0.512;2024-03-07T14:24:36;100418.00;;;21.64
77789;BMP280;70537;44.384;0.512;2024-03-07T14:33:00;100375.41;;;22.12
77789;BMP280;70537;44.384;0.512;2024-03-07T14:35:39;100372.97;;;22.16
77789;BMP280;70537;44.384;0.512;2024-03-07T14:38:39;100367.41;;;21.89
77789;BMP280;70537;44.384;0.512;2024-03-07T14:41:09;100361.09;;;22.33
77789;BMP280;70537;44.384;0.512;2024-03-07T14:43:37;100361.19;;;22.15
77789;BMP280;70537;44.384;0.512;2024-03-07T14:46:03;100353.59;;;21.27